createdAt,value
2022-12-22T00:02:40.467Z,57.92
2022-12-22T00:05:36.389Z,64.38
2022-12-22T00:11:21.842Z,56.75
2022-12-22T00:16:56.763Z,59.92
2022-12-22T00:19:42.921Z,62.67
2022-12-22T00:22:32.629Z,59.45
2022-12-22T00:25:18.112Z,58.72
2022-12-22T00:28:03.931Z,59.22
2022-12-22T00:30:49.727Z,59.42
2022-12-22T00:33:37.702Z,58.97
2022-12-22T00:36:25.305Z,58.45
2022-12-22T00:39:11.055Z,58.28
2022-12-22T00:41:56.906Z,59.65
2022-12-22T00:44:42.962Z,57.30
2022-12-22T00:47:33.524Z,57.45
2022-12-22T00:50:19.707Z,56.83
2022-12-22T00:53:05.667Z,55.97
2022-12-22T00:55:51.548Z,67.53
2022-12-22T00:58:38.264Z,56.35
2022-12-22T01:01:24.531Z,66.63
2022-12-22T01:04:10.338Z,69.72
2022-12-22T01:09:42.470Z,64.53
2022-12-22T01:12:37.380Z,67.90
2022-12-22T01:15:23.614Z,68.65
2022-12-22T01:18:09.474Z,72.88
2022-12-22T01:20:55.695Z,72.53
2022-12-22T01:23:41.871Z,72.80
2022-12-22T01:26:30.794Z,71.03
2022-12-22T01:29:16.670Z,65.95
2022-12-22T01:32:02.713Z,70.28
2022-12-22T01:34:48.617Z,70.05
2022-12-22T01:37:34.370Z,72.55
2022-12-22T01:43:06.030Z,75.13
2022-12-22T01:45:53.108Z,74.20
2022-12-22T01:48:40.147Z,73.70
2022-12-22T01:51:28.373Z,70.47
2022-12-22T01:54:14.283Z,76.18
2022-12-22T01:57:00.241Z,79.47
2022-12-22T01:59:46.087Z,82.03
2022-12-22T02:02:32.259Z,80.68
2022-12-22T02:05:19.607Z,76.93
2022-12-22T02:08:25.371Z,78.93
2022-12-22T02:11:19.764Z,82.72
2022-12-22T02:14:05.664Z,79.75
2022-12-22T02:16:54.795Z,83.30
2022-12-22T02:19:46.329Z,94.25
2022-12-22T02:22:45.825Z,88.93
2022-12-22T02:25:35.763Z,83.28
2022-12-22T02:28:22.680Z,95.07
2022-12-22T02:31:09.309Z,96.47
2022-12-22T02:33:55.297Z,95.18
2022-12-22T02:37:10.016Z,93.63
2022-12-22T02:40:14.687Z,91.03
2022-12-22T02:43:13.869Z,93.40
2022-12-22T02:46:02.429Z,85.40
2022-12-22T02:49:11.182Z,86.32
2022-12-22T02:52:06.122Z,92.32
2022-12-22T02:54:52.765Z,93.60
2022-12-22T02:57:38.807Z,86.07
2022-12-22T03:00:25.441Z,87.13
2022-12-22T03:03:11.500Z,89.13
2022-12-22T03:05:57.612Z,82.55
2022-12-22T03:08:43.841Z,84.90
2022-12-22T03:11:29.742Z,85.85
2022-12-22T03:14:15.589Z,83.13
2022-12-22T03:17:01.742Z,88.70
2022-12-22T03:19:47.561Z,84.32
2022-12-22T03:22:33.434Z,85.63
2022-12-22T03:25:19.490Z,86.05
2022-12-22T03:27:46.523Z,81.63
2022-12-22T03:30:13.933Z,82.40
2022-12-22T03:32:41.014Z,85.97
2022-12-22T03:35:08.266Z,84.43
2022-12-22T03:37:35.353Z,77.55
2022-12-22T03:40:02.401Z,75.65
2022-12-22T03:42:48.373Z,80.53
2022-12-22T03:45:34.320Z,79.97
2022-12-22T03:48:01.393Z,85.97
2022-12-22T03:50:28.455Z,73.03
2022-12-22T03:52:55.579Z,73.28
2022-12-22T03:55:22.620Z,81.63
2022-12-22T03:57:49.688Z,86.57
2022-12-22T04:00:17.037Z,77.93
2022-12-22T04:02:44.171Z,77.68
2022-12-22T04:05:11.459Z,80.65
2022-12-22T04:07:38.732Z,90.53
2022-12-22T04:10:24.711Z,79.53
2022-12-22T04:12:55.282Z,83.00
2022-12-22T04:15:26.892Z,77.28
2022-12-22T04:17:54.236Z,77.18
2022-12-22T04:20:21.730Z,86.80
2022-12-22T04:22:49.183Z,80.68
2022-12-22T04:25:16.356Z,78.75
2022-12-22T04:27:43.423Z,80.95
2022-12-22T04:30:10.964Z,76.53
2022-12-22T04:32:38.383Z,75.93
2022-12-22T04:35:06.132Z,81.03
2022-12-22T04:37:33.413Z,80.88
2022-12-22T04:40:00.551Z,75.82
2022-12-22T04:42:27.646Z,86.55
2022-12-22T04:44:54.744Z,81.43
2022-12-22T04:47:21.800Z,81.03
2022-12-22T04:49:48.919Z,85.20
2022-12-22T04:52:15.977Z,86.05
2022-12-22T04:54:43.034Z,85.63
2022-12-22T04:57:10.087Z,83.85
2022-12-22T04:59:37.141Z,83.03
2022-12-22T05:02:04.307Z,87.15
2022-12-22T05:04:32.270Z,89.03
2022-12-22T05:06:59.291Z,83.25
2022-12-22T05:09:27.908Z,88.30
2022-12-22T05:11:54.986Z,82.30
2022-12-22T05:14:22.053Z,83.85
2022-12-22T05:16:49.165Z,87.60
2022-12-22T05:19:16.314Z,89.50
2022-12-22T05:21:43.464Z,90.75
2022-12-22T05:24:10.539Z,85.55
2022-12-22T05:26:37.589Z,89.93
2022-12-22T05:29:04.733Z,86.97
2022-12-22T05:31:31.806Z,82.88
2022-12-22T05:33:58.929Z,87.13
2022-12-22T05:36:25.966Z,92.05
2022-12-22T05:38:53.042Z,92.95
2022-12-22T05:41:20.266Z,91.32
2022-12-22T05:43:47.328Z,94.60
2022-12-22T05:46:14.494Z,86.50
2022-12-22T05:48:41.580Z,86.90
2022-12-22T05:51:09.930Z,84.50
2022-12-22T05:53:37.124Z,89.28
2022-12-22T05:56:04.244Z,86.20
2022-12-22T05:58:31.468Z,87.43
2022-12-22T06:00:59.106Z,91.35
2022-12-22T06:03:30.358Z,91.35
2022-12-22T06:05:57.645Z,93.70
2022-12-22T06:08:24.824Z,94.22
2022-12-22T06:10:54.158Z,86.35
2022-12-22T06:13:21.206Z,91.45
2022-12-22T06:15:49.115Z,88.90
2022-12-22T06:18:16.271Z,93.72
2022-12-22T06:20:43.409Z,87.95
2022-12-22T06:23:10.451Z,93.30
2022-12-22T06:25:37.501Z,87.97
2022-12-22T06:28:04.600Z,90.70
2022-12-22T06:30:33.780Z,91.30
2022-12-22T06:33:01.466Z,99.45
2022-12-22T06:35:28.687Z,93.68
2022-12-22T06:37:55.816Z,100.20
2022-12-22T06:40:22.967Z,106.50
2022-12-22T06:43:09.348Z,105.72
2022-12-22T06:45:38.024Z,105.10
2022-12-22T06:48:05.710Z,102.28
2022-12-22T06:50:32.991Z,103.18
2022-12-22T06:53:00.185Z,98.32
2022-12-22T06:55:27.227Z,96.80
2022-12-22T06:57:55.011Z,94.22
2022-12-22T07:00:22.364Z,98.95
2022-12-22T07:02:49.547Z,101.55
2022-12-22T07:05:16.880Z,98.00
2022-12-22T07:07:43.947Z,102.47
2022-12-22T07:10:11.237Z,103.80
2022-12-22T07:12:38.272Z,98.78
2022-12-22T07:15:05.562Z,107.28
2022-12-22T07:17:32.651Z,99.68
2022-12-22T07:19:59.709Z,101.53
2022-12-22T07:22:30.439Z,109.60
2022-12-22T07:24:58.988Z,108.90
2022-12-22T07:27:26.787Z,108.35
2022-12-22T07:29:54.248Z,109.47
2022-12-22T07:32:21.376Z,101.15
2022-12-22T07:34:48.457Z,103.32
2022-12-22T07:37:15.581Z,107.32
2022-12-22T07:39:42.629Z,96.47
2022-12-22T07:42:31.103Z,91.85
2022-12-22T07:44:58.235Z,229.30
2022-12-22T07:47:29.944Z,96.32
2022-12-22T07:50:18.951Z,90.07
2022-12-22T07:55:14.117Z,63.25
2022-12-22T07:57:41.211Z,68.93
2022-12-22T08:00:08.560Z,81.95
2022-12-22T08:02:39.190Z,73.72
2022-12-22T08:05:06.902Z,92.70
2022-12-22T08:07:34.043Z,87.60
2022-12-22T08:10:01.108Z,80.53
2022-12-22T08:12:29.735Z,85.82
2022-12-22T08:14:56.967Z,89.55
2022-12-22T08:17:23.987Z,78.47
2022-12-22T08:19:51.081Z,108.82
2022-12-22T08:22:18.129Z,98.15
2022-12-22T08:24:45.143Z,76.28
2022-12-22T08:27:15.926Z,75.82
2022-12-22T08:29:47.365Z,336.35
2022-12-22T08:32:14.421Z,84.78
2022-12-22T08:34:41.699Z,74.10
2022-12-22T08:37:11.246Z,109.10
2022-12-22T08:39:39.895Z,132.88
2022-12-22T08:42:07.827Z,117.10
2022-12-22T08:44:36.501Z,108.07
2022-12-22T08:47:03.777Z,95.30
2022-12-22T08:49:30.876Z,142.00
2022-12-22T08:51:57.968Z,161.25
2022-12-22T08:54:25.164Z,208.07
2022-12-22T08:56:52.967Z,135.63
2022-12-22T08:59:20.056Z,250.68
2022-12-22T09:01:50.430Z,98.13
2022-12-22T09:04:19.463Z,131.35
2022-12-22T09:06:46.754Z,91.68
2022-12-22T09:09:14.204Z,102.20
2022-12-22T09:11:41.516Z,105.95
2022-12-22T09:14:09.616Z,93.30
2022-12-22T09:16:37.301Z,93.63
2022-12-22T09:19:04.611Z,86.68
2022-12-22T09:21:31.804Z,96.72
2022-12-22T09:23:59.244Z,91.88
2022-12-22T09:26:27.534Z,91.82
2022-12-22T09:28:55.151Z,92.03
2022-12-22T09:31:23.697Z,90.38
2022-12-22T09:33:51.051Z,89.20
2022-12-22T09:36:19.939Z,95.15
2022-12-22T09:38:47.135Z,81.82
2022-12-22T09:41:19.293Z,85.60
2022-12-22T09:43:46.647Z,77.07
2022-12-22T09:46:20.829Z,77.18
2022-12-22T09:48:48.285Z,81.63
2022-12-22T09:51:18.619Z,69.57
2022-12-22T09:53:53.359Z,72.18
2022-12-22T09:56:20.691Z,79.93
2022-12-22T09:58:47.757Z,80.43
2022-12-22T10:01:14.849Z,76.35
2022-12-22T10:03:44.956Z,76.85
2022-12-22T10:06:12.201Z,76.88
2022-12-22T10:08:40.718Z,70.45
2022-12-22T10:11:08.523Z,69.72
2022-12-22T10:13:35.597Z,70.25
2022-12-22T10:16:02.646Z,63.65
2022-12-22T10:18:30.035Z,63.13
2022-12-22T10:21:11.621Z,62.20
2022-12-22T10:23:46.744Z,70.70
2022-12-22T10:26:29.136Z,62.95
2022-12-22T10:28:59.562Z,77.18
2022-12-22T10:31:27.703Z,73.78
2022-12-22T10:33:56.415Z,70.68
2022-12-22T10:36:25.412Z,68.35
2022-12-22T10:39:00.854Z,70.30
2022-12-22T10:44:03.383Z,72.68
2022-12-22T10:46:41.906Z,56.55
2022-12-22T10:49:18.253Z,63.60
2022-12-22T10:51:47.268Z,58.15
2022-12-22T10:54:35.995Z,55.20
2022-12-22T10:57:05.040Z,56.13
2022-12-22T10:59:33.148Z,61.15
2022-12-22T11:02:20.530Z,52.90
2022-12-22T11:04:51.381Z,51.30
2022-12-22T11:07:18.584Z,52.13
2022-12-22T11:09:45.653Z,53.00
2022-12-22T11:12:18.860Z,54.25
2022-12-22T11:14:52.240Z,63.47
2022-12-22T11:17:31.585Z,57.80
2022-12-22T11:20:18.398Z,49.97
2022-12-22T11:23:08.455Z,48.53
2022-12-22T11:25:38.553Z,46.60
2022-12-22T11:28:20.076Z,53.60
2022-12-22T11:31:05.958Z,40.10
2022-12-22T11:33:42.947Z,43.60
2022-12-22T11:36:14.748Z,34.45
2022-12-22T11:38:56.437Z,34.80
2022-12-22T11:41:26.642Z,33.67
2022-12-22T11:43:59.762Z,27.80
2022-12-22T11:46:26.907Z,26.60
2022-12-22T11:49:12.088Z,24.30
2022-12-22T11:51:52.194Z,29.58
2022-12-22T11:54:19.205Z,29.60
2022-12-22T11:56:48.084Z,24.10
2022-12-22T11:59:17.943Z,25.10
2022-12-22T12:01:51.374Z,26.67
2022-12-22T12:04:18.524Z,24.75
2022-12-22T12:06:51.548Z,33.97
2022-12-22T12:09:28.093Z,22.80
2022-12-22T12:12:05.374Z,25.10
2022-12-22T12:14:32.424Z,27.98
2022-12-22T12:17:00.471Z,22.65
2022-12-22T12:19:33.389Z,24.45
2022-12-22T12:22:09.532Z,24.92
2022-12-22T12:24:55.374Z,25.13
2022-12-22T12:27:29.465Z,23.13
2022-12-22T12:30:39.532Z,24.73
2022-12-22T12:33:02.231Z,24.30
2022-12-22T12:35:36.156Z,22.42
2022-12-22T12:38:25.947Z,22.02
2022-12-22T12:41:10.939Z,22.75
2022-12-22T12:43:38.118Z,26.30
2022-12-22T12:46:25.186Z,24.10
2022-12-22T12:48:52.467Z,25.17
2022-12-22T12:51:46.158Z,22.73
2022-12-22T12:54:32.209Z,22.52
2022-12-22T12:57:08.508Z,19.20
2022-12-22T12:59:41.777Z,15.98
2022-12-22T13:02:27.995Z,17.35
2022-12-22T13:05:12.095Z,22.13
2022-12-22T13:07:58.170Z,14.32
2022-12-22T13:10:26.504Z,17.35
2022-12-22T13:12:54.649Z,16.27
2022-12-22T13:15:35.467Z,16.90
2022-12-22T13:18:04.175Z,21.00
2022-12-22T13:20:33.060Z,18.95
2022-12-22T13:23:01.540Z,22.30
2022-12-22T13:25:40.842Z,20.77
2022-12-22T13:28:12.053Z,20.25
2022-12-22T13:30:39.215Z,18.23
2022-12-22T13:33:11.780Z,23.35
2022-12-22T13:35:47.198Z,22.40
2022-12-22T13:38:30.186Z,21.67
2022-12-22T13:40:58.597Z,19.10
2022-12-22T13:43:27.474Z,18.88
2022-12-22T13:45:58.993Z,19.73
2022-12-22T13:48:49.425Z,23.85
2022-12-22T13:51:22.059Z,19.55
2022-12-22T13:56:45.472Z,17.33
2022-12-22T13:59:30.968Z,25.20
2022-12-22T14:02:02.986Z,23.55
2022-12-22T14:04:31.015Z,22.42
2022-12-22T14:06:58.198Z,24.05
2022-12-22T14:09:28.859Z,24.92
2022-12-22T14:12:02.195Z,21.10
2022-12-22T14:14:39.891Z,24.85
2022-12-22T14:17:17.715Z,23.08
2022-12-22T14:19:44.852Z,25.42
2022-12-22T14:22:15.176Z,22.15
2022-12-22T14:24:47.239Z,26.25
2022-12-22T14:27:29.670Z,28.48
2022-12-22T14:29:58.000Z,25.65
2022-12-22T14:32:50.676Z,23.10
2022-12-22T14:35:21.391Z,25.98
2022-12-22T14:37:49.385Z,24.08
2022-12-22T14:40:36.176Z,28.27
2022-12-22T14:43:04.748Z,20.83
2022-12-22T14:45:31.924Z,22.95
2022-12-22T14:47:59.123Z,26.00
2022-12-22T14:50:35.030Z,19.45
2022-12-22T14:53:03.189Z,24.08
2022-12-22T14:55:31.883Z,23.45
2022-12-22T14:58:07.206Z,21.30
2022-12-22T15:03:03.645Z,20.63
2022-12-22T15:05:37.526Z,26.42
2022-12-22T15:08:07.997Z,22.92
2022-12-22T15:10:39.117Z,27.55
2022-12-22T15:13:07.712Z,24.55
2022-12-22T15:15:35.829Z,19.42
2022-12-22T15:18:03.711Z,21.80
2022-12-22T15:20:38.718Z,20.17
2022-12-22T15:23:10.857Z,16.10
2022-12-22T15:25:38.568Z,16.67
2022-12-22T15:28:06.110Z,26.00
2022-12-22T15:30:33.326Z,20.88
2022-12-22T15:33:00.611Z,23.48
2022-12-22T15:35:35.344Z,21.27
2022-12-22T15:38:02.742Z,19.27
2022-12-22T15:40:30.028Z,21.38
2022-12-22T15:42:57.398Z,19.60
2022-12-22T15:45:24.936Z,16.95
2022-12-22T15:47:53.132Z,21.92
2022-12-22T15:50:29.310Z,22.23
2022-12-22T15:53:00.294Z,19.52
2022-12-22T15:55:27.665Z,19.35
2022-12-22T15:57:57.403Z,20.02
2022-12-22T16:00:24.890Z,16.83
2022-12-22T16:02:52.186Z,17.63
2022-12-22T16:05:19.326Z,16.15
2022-12-22T16:07:49.638Z,18.35
2022-12-22T16:10:24.052Z,19.25
2022-12-22T16:12:59.878Z,18.40
2022-12-22T16:15:35.925Z,14.07
2022-12-22T16:18:04.756Z,14.40
2022-12-22T16:20:37.581Z,16.05
2022-12-22T16:23:05.641Z,24.73
2022-12-22T16:25:34.825Z,19.80
2022-12-22T16:28:02.247Z,22.10
2022-12-22T16:30:30.589Z,21.20
2022-12-22T16:32:58.022Z,19.05
2022-12-22T16:35:26.541Z,20.50
2022-12-22T16:37:56.173Z,22.33
2022-12-22T16:40:26.467Z,23.70
2022-12-22T16:45:44.142Z,28.50
2022-12-22T16:48:16.886Z,22.92
2022-12-22T16:50:45.320Z,26.45
2022-12-22T16:53:14.559Z,25.10
2022-12-22T16:55:44.476Z,28.15
2022-12-22T16:58:13.808Z,28.55
2022-12-22T17:00:43.970Z,30.52
2022-12-22T17:03:14.383Z,28.17
2022-12-22T17:05:49.830Z,31.38
2022-12-22T17:10:44.153Z,26.42
2022-12-22T17:13:11.632Z,27.80
2022-12-22T17:15:38.735Z,29.52
2022-12-22T17:18:07.640Z,27.95
2022-12-22T17:20:34.788Z,30.13
2022-12-22T17:23:02.898Z,38.03
2022-12-22T17:25:31.204Z,58.30
2022-12-22T17:27:59.405Z,37.35
2022-12-22T17:30:27.715Z,35.10
2022-12-22T17:32:54.894Z,37.95
2022-12-22T17:35:23.767Z,42.00
2022-12-22T17:37:51.279Z,34.55
2022-12-22T17:40:23.516Z,32.13
2022-12-22T17:42:50.692Z,37.05
2022-12-22T17:45:17.996Z,33.47
2022-12-22T17:47:47.244Z,35.88
2022-12-22T17:50:16.111Z,34.60
2022-12-22T17:52:43.875Z,35.00
2022-12-22T17:58:18.634Z,34.70
2022-12-22T18:00:45.901Z,45.63
2022-12-22T18:03:14.278Z,41.58
2022-12-22T18:05:43.778Z,44.28
2022-12-22T18:08:16.647Z,45.42
2022-12-22T18:10:43.869Z,40.38
2022-12-22T18:13:16.102Z,43.63
2022-12-22T18:15:43.382Z,52.63
2022-12-22T18:18:14.607Z,46.97
2022-12-22T18:20:42.299Z,49.88
2022-12-22T18:23:16.922Z,48.30
2022-12-22T18:25:44.299Z,57.38
2022-12-22T18:28:15.081Z,62.22
2022-12-22T18:30:42.433Z,51.85
2022-12-22T18:33:09.547Z,54.95
2022-12-22T18:35:37.163Z,53.08
2022-12-22T18:38:04.601Z,52.90
2022-12-22T18:40:33.004Z,58.80
2022-12-22T18:43:00.782Z,61.05
2022-12-22T18:45:29.405Z,53.00
2022-12-22T18:47:56.941Z,54.33
2022-12-22T18:50:25.334Z,60.83
2022-12-22T18:52:53.298Z,63.90
2022-12-22T18:55:31.272Z,54.90
2022-12-22T18:57:58.827Z,57.42
2022-12-22T19:00:27.038Z,65.60
2022-12-22T19:02:55.400Z,59.45
2022-12-22T19:05:27.100Z,63.03
2022-12-22T19:07:54.418Z,64.50
2022-12-22T19:10:26.955Z,58.35
2022-12-22T19:12:55.293Z,61.28
2022-12-22T19:15:24.370Z,67.07
2022-12-22T19:17:51.907Z,63.45
2022-12-22T19:20:20.085Z,62.05
2022-12-22T19:22:47.368Z,58.90
2022-12-22T19:25:18.909Z,64.82
2022-12-22T19:27:46.912Z,61.35
2022-12-22T19:30:18.407Z,68.25
2022-12-22T19:32:47.973Z,60.10
2022-12-22T19:35:25.462Z,75.00
2022-12-22T19:37:53.221Z,71.63
2022-12-22T19:40:21.246Z,71.70
2022-12-22T19:42:50.413Z,68.78
2022-12-22T19:45:21.677Z,72.03
2022-12-22T19:47:49.955Z,72.10
2022-12-22T19:50:18.465Z,73.20
2022-12-22T19:52:45.605Z,78.10
2022-12-22T19:55:12.992Z,86.63
2022-12-22T19:57:43.650Z,88.10
2022-12-22T20:00:15.187Z,81.45
2022-12-22T20:02:42.502Z,76.55
2022-12-22T20:05:23.001Z,84.70
2022-12-22T20:07:50.697Z,82.22
2022-12-22T20:10:18.158Z,78.43
2022-12-22T20:12:46.970Z,82.97
2022-12-22T20:15:18.646Z,80.43
2022-12-22T20:17:46.431Z,71.03
2022-12-22T20:20:17.819Z,71.32
2022-12-22T20:22:49.824Z,67.40
2022-12-22T20:25:17.992Z,70.57
2022-12-22T20:27:45.112Z,75.05
2022-12-22T20:30:25.910Z,72.63
2022-12-22T20:32:54.423Z,72.38
2022-12-22T20:35:22.248Z,75.72
2022-12-22T20:37:50.101Z,69.22
2022-12-22T20:40:28.221Z,70.35
2022-12-22T20:42:55.404Z,73.57
2022-12-22T20:45:22.591Z,76.57
2022-12-22T20:47:53.473Z,70.65
2022-12-22T20:50:20.583Z,71.70
2022-12-22T20:52:47.988Z,79.18
2022-12-22T20:55:16.654Z,77.47
2022-12-22T20:57:44.488Z,72.03
2022-12-22T21:00:16.744Z,72.45
2022-12-22T21:02:43.852Z,75.32
2022-12-22T21:05:11.169Z,72.88
2022-12-22T21:07:38.270Z,76.68
2022-12-22T21:10:05.551Z,77.47
2022-12-22T21:12:32.661Z,79.93
2022-12-22T21:14:59.740Z,79.22
2022-12-22T21:17:26.849Z,81.78
2022-12-22T21:19:53.877Z,85.68
2022-12-22T21:22:20.959Z,80.35
2022-12-22T21:24:48.140Z,86.40
2022-12-22T21:27:20.290Z,79.50
2022-12-22T21:29:47.791Z,78.07
2022-12-22T21:32:15.356Z,79.75
2022-12-22T21:34:42.529Z,86.00
2022-12-22T21:37:16.705Z,80.55
2022-12-22T21:39:44.795Z,73.38
2022-12-22T21:42:20.022Z,78.85
2022-12-22T21:47:15.262Z,79.40
2022-12-22T21:49:42.352Z,76.82
2022-12-22T21:52:09.440Z,80.70
2022-12-22T21:54:36.520Z,76.30
2022-12-22T21:57:03.648Z,74.47
2022-12-22T21:59:30.716Z,77.40
2022-12-22T22:01:58.060Z,73.55
2022-12-22T22:04:25.395Z,76.97
2022-12-22T22:06:52.482Z,77.80
2022-12-22T22:09:19.618Z,78.53
2022-12-22T22:12:05.618Z,78.70
2022-12-22T22:14:32.727Z,74.35
2022-12-22T22:16:59.780Z,88.57
2022-12-22T22:19:26.833Z,81.22
2022-12-22T22:21:53.919Z,80.00
2022-12-22T22:24:21.029Z,78.45
2022-12-22T22:26:50.387Z,81.13
2022-12-22T22:29:17.505Z,86.57
2022-12-22T22:31:44.754Z,86.55
2022-12-22T22:34:11.868Z,88.03
2022-12-22T22:36:38.890Z,90.07
2022-12-22T22:39:06.201Z,87.93
2022-12-22T22:41:39.124Z,83.60
2022-12-22T22:44:09.875Z,86.68
2022-12-22T22:46:37.018Z,80.53
2022-12-22T22:49:04.168Z,84.25
2022-12-22T22:51:31.228Z,87.88
2022-12-22T22:53:58.475Z,79.88
2022-12-22T22:56:25.547Z,84.95
2022-12-22T22:58:52.625Z,84.60
2022-12-22T23:01:19.851Z,83.70
2022-12-22T23:03:47.194Z,86.38
2022-12-22T23:06:14.853Z,91.82
2022-12-22T23:08:41.873Z,85.43
2022-12-22T23:11:13.346Z,88.28
2022-12-22T23:13:40.581Z,93.00
2022-12-22T23:16:07.721Z,88.78
2022-12-22T23:18:34.937Z,83.15
2022-12-22T23:21:02.986Z,87.55
2022-12-22T23:23:30.127Z,85.45
2022-12-22T23:25:57.439Z,86.63
2022-12-22T23:28:24.763Z,90.90
2022-12-22T23:30:52.915Z,91.25
2022-12-22T23:33:20.909Z,85.38
2022-12-22T23:35:49.398Z,90.45
2022-12-22T23:38:17.390Z,85.18
2022-12-22T23:40:53.482Z,86.03
2022-12-22T23:43:21.770Z,87.03
2022-12-22T23:45:48.821Z,84.40
2022-12-22T23:48:15.889Z,89.45
2022-12-22T23:50:46.108Z,86.35
2022-12-22T23:53:13.302Z,85.35
2022-12-22T23:55:47.269Z,83.65
2022-12-22T23:58:14.709Z,84.72
